Spelter City, Oklahoma
Current Conditions -  °F | °C
As of 5:55 PM on Friday 19 Dec 2014 (Local Time) from KOKM Reporting Station
Overcast Overcast  
Wind Chill: 40°   Ceiling: 2200
Heat Index: 40°   Visibility: 10mi
Dew Point: 37°   Wind: 0mph
Humidity: 88%   Direction: NA
Pressure: 30.21"   Gusts: NA
Location:  35.4729°N, 95.9709°W
Report Text: KOKM 192355Z AUTO 00000KT 10SM OVC022 04/03 A3021 RMK AO2 T00430025 10050 20038
Loading
Personal Weather Stations






























Interactive Weather Map New forecast layout! Learn more

10-Day Weather Forecast

Advertisements
Track Severe Weather on mobile